13:20
Airports
History
Links
Donate
Help keep this website running!
PayPal
Bitcoin
This page is community maintained. The information is intended for PC simulator navigation or reference.
Always use approved charts for navigation.
0U5
Interstate
Interstate (0U5)
Malta, Idaho, United States (83342)
4
Lat/Lng:42° 16' 41.69" N / 113° 18' 18" W
42.278247 / -113.304999
Elevation:4580'ft / 1396mMSL
ID / ICAO:0U5
Runways:1
Longest:32-14
Grass 917m / 3,010ft
Nearby Weather12:53 GMT 2018-01-20
Nearby weather at KBYI, Burley Muni located 30.0 nautical miles from 0U5
Altimeter: 29.94
Visibility: 10.0 statute miles
Wind: 10 knots (from 250°)
Temp: -2°c / 28°f
Humidity: 74.0%

METAR: KBYI 201253Z AUTO 25010KT 10SM SCT021 M02/M06 A2994 RMK AO2 SLP155 T10221056

(Powered by phpweather)
Nearby VORs <50NM
Nearby NDBs
Runway 32 / 14
Dimensions:917.3 x 22.9m 3010' x 75'ft
Surface:Grass
Runway 32 [A]Runway 14 [B]
Heading:331°TH 151°TH
Lat:
Lng:
42° 16' 28.74"N
113° 18' 8.29"W
42° 16' 54.64"N
113° 18' 27.7"W
User Notes and Comments
42° 16' 41.69" N / 113° 18' 18" W
Distance To
Airport ID:
Nearby Airports
4 Albion Municipal 15.3 NM
U40 WNW 302°
4 Oakley Muni 29.4 NM
1U6 W 264°
(U) Burley Muni 30.0 NM
KBYI ( WX ) NW 307°
(U) American Falls 43.4 NM
U01 NE 34°
4 Hazelton Muni 47.1 NM
U94 WNW 295°
4 Bear Trap 48.2 NM
1U0 N 357°
(U) Aberdeen Muni 49.4 NM
U36 NNE 25°
VFR Chart
Flight Planning at SkyVector.com